Time;durP1;ratioP1;P1;durP2;ratioP2;P2;SDS_P1;SDS_P2;PMS_P1;PMS_P2;Temp;Humidity;BMP_temperature;BMP_pressure;BME280_temperature;BME280_humidity;BME280_pressure;Samples;Min_cycle;Max_cycle;Signal;HPM_P1;HPM_P2
2022/08/14 00:01:14;;;;;;;4.80;3.28;;;;;;;25.77;39.85;101086.38;4962449;28;21504;-66
2022/08/14 00:03:39;;;;;;;5.10;3.20;;;;;;;25.69;40.01;101079.19;4978471;28;20038;-66
2022/08/14 00:06:05;;;;;;;5.80;3.47;;;;;;;25.74;39.63;101084.88;4982955;28;20034;-65
2022/08/14 00:08:30;;;;;;;4.47;3.20;;;;;;;25.71;39.81;101083.38;4972539;28;20041;-65
2022/08/14 00:10:55;;;;;;;5.03;3.60;;;;;;;25.70;39.73;101081.69;4979477;28;20044;-66
2022/08/14 00:13:23;;;;;;;5.38;3.30;;;;;;;25.68;39.78;101077.56;4985786;28;20038;-66
2022/08/14 00:15:50;;;;;;;5.22;3.35;;;;;;;25.66;39.80;101063.53;4985229;28;20041;-65
2022/08/14 00:18:24;;;;;;;4.95;3.28;;;;;;;25.64;40.12;101066.41;4985218;28;20045;-65
2022/08/14 00:20:50;;;;;;;4.72;3.38;;;;;;;25.66;40.21;101066.19;4966285;28;20075;-65
2022/08/14 00:23:17;;;;;;;4.43;3.25;;;;;;;25.62;40.37;101060.38;4970777;28;20082;-66
2022/08/14 00:25:45;;;;;;;5.20;3.28;;;;;;;25.61;39.87;101056.06;4971575;28;20478;-66
2022/08/14 00:28:13;;;;;;;4.47;3.00;;;;;;;25.63;39.85;101058.56;4965458;28;20035;-66
2022/08/14 00:30:39;;;;;;;4.55;3.15;;;;;;;25.61;39.99;101058.72;4965212;28;20035;-66
2022/08/14 00:33:05;;;;;;;4.68;3.30;;;;;;;25.57;40.10;101049.38;4965524;28;20034;-65
2022/08/14 00:35:30;;;;;;;5.15;3.60;;;;;;;25.58;39.97;101047.53;4965368;28;20399;-66
2022/08/14 00:37:56;;;;;;;4.93;3.30;;;;;;;25.57;39.75;101040.53;4965364;28;20481;-67
2022/08/14 00:40:23;;;;;;;5.57;3.38;;;;;;;25.55;40.18;101043.38;4967255;28;20035;-68
2022/08/14 00:42:49;;;;;;;7.22;3.38;;;;;;;25.58;40.23;101045.72;4984591;28;20034;-68
2022/08/14 00:45:16;;;;;;;6.90;3.30;;;;;;;25.55;40.16;101038.03;4965398;28;20043;-65
2022/08/14 00:47:43;;;;;;;4.93;3.20;;;;;;;25.57;40.00;101040.53;4979251;28;20042;-66
2022/08/14 00:50:12;;;;;;;4.70;3.40;;;;;;;25.59;40.00;101035.88;4968663;28;20101;-64
2022/08/14 00:52:37;;;;;;;5.10;3.50;;;;;;;25.57;39.91;101037.88;4978320;28;20092;-66
2022/08/14 00:55:06;;;;;;;5.57;3.22;;;;;;;25.52;40.17;101017.88;4984309;28;20042;-65
2022/08/14 00:57:34;;;;;;;4.85;3.22;;;;;;;25.55;40.18;101027.38;4984609;28;20034;-65
2022/08/14 01:00:01;;;;;;;5.85;3.50;;;;;;;25.53;39.89;101011.53;4984118;28;20042;-65
2022/08/14 01:02:27;;;;;;;4.78;3.30;;;;;;;25.53;39.97;101019.53;4984200;28;20097;-67
2022/08/14 01:04:56;;;;;;;4.55;3.20;;;;;;;25.50;40.22;101013.69;4978483;28;20023;-67
2022/08/14 01:07:23;;;;;;;5.50;3.75;;;;;;;25.49;39.92;101017.38;4964728;28;20081;-67
2022/08/14 01:09:55;;;;;;;4.32;3.10;;;;;;;25.43;40.30;100999.38;4964596;28;20034;-64
2022/08/14 01:12:23;;;;;;;4.63;3.40;;;;;;;25.48;40.00;101002.34;4975196;28;20074;-67
2022/08/14 01:14:53;;;;;;;5.95;3.60;;;;;;;25.44;40.29;100993.03;4971645;28;20077;-66
2022/08/14 01:17:20;;;;;;;4.90;3.50;;;;;;;25.47;40.05;100998.03;4983991;28;20034;-66
2022/08/14 01:22:29;;;;;;;4.90;3.55;;;;;;;25.44;39.88;101007.22;4964113;28;20184;-64
2022/08/14 01:24:56;;;;;;;6.45;4.10;;;;;;;25.43;39.82;101004.72;4972692;28;20046;-65
2022/08/14 01:27:22;;;;;;;6.13;3.75;;;;;;;25.34;40.00;100982.53;4973741;28;20077;-65
2022/08/14 01:29:50;;;;;;;6.03;3.50;;;;;;;25.40;40.23;100992.53;4973004;28;20532;-66
2022/08/14 01:32:20;;;;;;;5.25;3.63;;;;;;;25.38;40.07;100991.06;4975475;28;20104;-68
2022/08/14 01:34:53;;;;;;;4.28;3.38;;;;;;;25.35;40.50;100995.69;4969884;28;20041;-66
2022/08/14 01:37:23;;;;;;;4.77;3.60;;;;;;;25.40;40.21;101005.03;4981334;28;20049;-66
2022/08/14 01:39:50;;;;;;;5.28;3.53;;;;;;;25.40;40.33;100995.19;4973446;28;20494;-65
2022/08/14 01:42:15;;;;;;;6.15;4.00;;;;;;;25.38;40.44;100999.88;4964221;28;20037;-65
2022/08/14 01:44:40;;;;;;;5.03;3.63;;;;;;;25.37;40.05;100998.19;4966176;28;20031;-64
2022/08/14 01:47:13;;;;;;;5.07;3.90;;;;;;;25.30;39.89;100995.38;4983274;28;20066;-65
2022/08/14 01:49:39;;;;;;;5.47;3.70;;;;;;;25.35;40.06;101003.69;4983369;28;20748;-66
2022/08/14 01:52:06;;;;;;;6.15;3.83;;;;;;;25.30;40.30;100999.91;4983424;28;20026;-66
2022/08/14 01:54:33;;;;;;;4.82;3.90;;;;;;;25.28;40.45;100996.56;4972621;28;20058;-66
2022/08/14 01:56:58;;;;;;;6.20;4.20;;;;;;;25.29;40.02;100995.56;4977157;28;20053;-66
2022/08/14 01:59:31;;;;;;;5.97;3.47;;;;;;;25.27;40.55;100987.69;4972329;28;20031;-64
2022/08/14 02:02:02;;;;;;;5.75;3.72;;;;;;;25.32;40.38;100987.22;4983114;28;20084;-65
2022/08/14 02:04:30;;;;;;;5.30;3.70;;;;;;;25.29;40.14;100985.72;4975210;28;20038;-66
2022/08/14 02:06:55;;;;;;;5.57;3.60;;;;;;;25.32;40.33;100987.22;4976054;28;20038;-67
2022/08/14 02:09:21;;;;;;;5.28;3.90;;;;;;;25.27;40.53;100971.69;4963588;28;20047;-67
2022/08/14 02:11:48;;;;;;;6.18;3.78;;;;;;;25.30;40.14;100984.72;4963556;28;20038;-64
2022/08/14 02:14:13;;;;;;;5.00;3.70;;;;;;;25.25;40.32;100976.34;4965129;28;20101;-66
2022/08/14 02:16:43;;;;;;;6.88;4.00;;;;;;;25.24;40.58;100974.69;4983052;28;20034;-65
2022/08/14 02:19:13;;;;;;;6.63;4.18;;;;;;;25.25;40.50;100983.53;4982833;28;20030;-64
2022/08/14 02:21:38;;;;;;;5.50;4.20;;;;;;;25.25;40.47;100983.53;4972846;28;20031;-65
2022/08/14 02:24:05;;;;;;;6.82;3.83;;;;;;;25.25;40.79;100976.34;4962987;28;20117;-64
2022/08/14 02:26:34;;;;;;;4.78;3.53;;;;;;;25.23;40.65;100973.03;4980852;28;20041;-64
2022/08/14 02:29:11;;;;;;;7.13;3.65;;;;;;;25.20;40.51;100976.03;4982545;28;20034;-67
2022/08/14 02:31:40;;;;;;;7.03;4.57;;;;;;;25.21;40.58;100980.34;4982442;28;20026;-66
2022/08/14 02:34:09;;;;;;;6.35;3.78;;;;;;;25.16;40.45;100970.19;4982070;28;20030;-66
2022/08/14 02:36:39;;;;;;;5.30;3.85;;;;;;;25.21;40.44;100976.88;4968274;28;20126;-65
2022/08/14 02:39:06;;;;;;;5.18;3.88;;;;;;;25.19;40.50;100968.22;4963218;28;20510;-65
2022/08/14 02:41:33;;;;;;;5.43;4.53;;;;;;;25.12;40.41;100952.88;4970899;28;20034;-68
2022/08/14 02:43:58;;;;;;;5.40;3.95;;;;;;;25.16;40.80;100967.53;4971073;28;20041;-66
2022/08/14 02:46:23;;;;;;;6.93;3.97;;;;;;;25.15;41.00;100957.88;4968188;28;20092;-66
2022/08/14 02:48:49;;;;;;;6.50;4.10;;;;;;;25.17;40.71;100960.38;4981723;28;20069;-65
2022/08/14 02:51:14;;;;;;;5.57;4.17;;;;;;;25.16;40.98;100959.53;4972249;28;20037;-64
2022/08/14 02:53:44;;;;;;;5.43;4.00;;;;;;;25.16;40.71;100972.84;4977462;28;20271;-64
2022/08/14 02:56:14;;;;;;;5.85;3.78;;;;;;;25.16;41.04;100967.53;4981848;28;20030;-66
2022/08/14 02:58:43;;;;;;;4.93;3.67;;;;;;;25.15;40.80;100959.69;4982567;28;20046;-66
2022/08/14 03:01:09;;;;;;;5.53;3.92;;;;;;;25.13;40.97;100957.22;4982107;28;20029;-67
2022/08/14 03:03:36;;;;;;;4.85;3.78;;;;;;;25.13;41.09;100954.56;4982071;28;20026;-65
2022/08/14 03:06:06;;;;;;;4.75;4.00;;;;;;;25.15;40.98;100957.03;4973770;28;20084;-65
2022/08/14 03:08:32;;;;;;;6.38;4.15;;;;;;;25.17;41.15;100952.38;4975708;28;20033;-65
2022/08/14 03:11:05;;;;;;;6.15;4.00;;;;;;;25.13;40.63;100949.22;4974361;28;20046;-66
2022/08/14 03:13:34;;;;;;;5.77;3.80;;;;;;;25.15;40.65;100941.88;4978547;28;20601;-65
2022/08/14 03:16:01;;;;;;;6.40;4.10;;;;;;;25.15;41.12;100946.34;4967267;28;20038;-66
2022/08/14 03:18:27;;;;;;;8.38;4.38;;;;;;;25.09;40.96;100942.56;4981754;28;20073;-66
2022/08/14 03:20:52;;;;;;;5.60;4.10;;;;;;;25.11;41.08;100945.88;4981619;28;20058;-63
2022/08/14 03:23:19;;;;;;;6.03;4.15;;;;;;;25.11;40.73;100943.19;4969278;28;20101;-66
2022/08/14 03:25:45;;;;;;;5.00;3.80;;;;;;;25.12;41.04;100955.53;4981208;28;20034;-67
2022/08/14 03:28:11;;;;;;;10.35;4.20;;;;;;;25.08;40.70;100945.38;4974371;28;20045;-65
2022/08/14 03:30:37;;;;;;;5.50;3.83;;;;;;;25.06;40.95;100942.06;4969698;28;20117;-67
2022/08/14 03:33:03;;;;;;;5.22;3.60;;;;;;;25.09;41.03;100945.22;4981849;28;20133;-64
2022/08/14 03:35:29;;;;;;;5.72;4.28;;;;;;;25.05;41.09;100929.72;4974701;28;20041;-67
2022/08/14 03:37:55;;;;;;;5.40;4.30;;;;;;;25.04;40.82;100922.72;4981311;28;20030;-66
2022/08/14 03:40:23;;;;;;;4.93;3.83;;;;;;;25.05;41.01;100919.88;4969606;28;20027;-66
2022/08/14 03:42:49;;;;;;;5.90;3.95;;;;;;;25.09;40.77;100923.88;4962338;28;20038;-64
2022/08/14 03:45:15;;;;;;;5.38;4.20;;;;;;;25.09;40.74;100931.88;4968048;28;20039;-66
2022/08/14 03:47:40;;;;;;;5.90;4.30;;;;;;;25.06;40.58;100926.06;4983361;28;20038;-66
2022/08/14 03:50:09;;;;;;;5.88;4.40;;;;;;;25.08;40.58;100924.06;4984063;28;20157;-65
2022/08/14 03:52:37;;;;;;;4.55;3.60;;;;;;;25.06;40.51;100932.22;4972269;28;20118;-65
2022/08/14 03:55:07;;;;;;;6.00;4.43;;;;;;;25.07;41.10;100928.56;4978964;28;20478;-66
2022/08/14 03:57:34;;;;;;;7.13;4.43;;;;;;;25.03;41.04;100929.06;4968160;28;20061;-67
2022/08/14 04:00:05;;;;;;;5.30;4.00;;;;;;;25.04;41.18;100933.38;4973987;28;20063;-65
2022/08/14 04:02:30;;;;;;;5.30;3.80;;;;;;;25.05;40.79;100932.38;4976395;28;20073;-66
2022/08/14 04:04:55;;;;;;;6.17;4.50;;;;;;;25.01;40.69;100925.72;4975076;28;20169;-66
2022/08/14 04:07:21;;;;;;;5.68;3.92;;;;;;;25.04;41.08;100928.91;4965848;28;20271;-65
2022/08/14 04:09:46;;;;;;;5.50;3.85;;;;;;;24.98;41.05;100927.72;4984324;28;20027;-66
2022/08/14 04:12:11;;;;;;;5.35;3.75;;;;;;;25.02;41.31;100932.72;4985585;28;20033;-67
2022/08/14 04:14:37;;;;;;;7.17;3.97;;;;;;;24.96;40.86;100919.06;4973490;28;20050;-65
2022/08/14 04:17:03;;;;;;;5.80;4.03;;;;;;;25.00;41.25;100927.56;4985177;28;20260;-64
2022/08/14 04:19:28;;;;;;;6.88;4.30;;;;;;;24.98;40.88;100922.38;4981872;28;20617;-65
2022/08/14 04:21:54;;;;;;;6.55;4.03;;;;;;;24.92;41.15;100908.91;4965498;28;20034;-66
2022/08/14 04:24:19;;;;;;;6.17;4.40;;;;;;;24.94;41.26;100912.22;4965577;28;20504;-66
2022/08/14 04:26:44;;;;;;;5.47;4.03;;;;;;;24.94;41.23;100915.75;4966097;28;20268;-65
2022/08/14 04:29:12;;;;;;;5.82;4.15;;;;;;;24.92;41.16;100907.06;4965471;28;20301;-65
2022/08/14 04:31:38;;;;;;;4.93;3.90;;;;;;;24.90;41.41;100906.41;4968411;28;20100;-66
2022/08/14 04:34:04;;;;;;;5.45;3.90;;;;;;;24.96;40.99;100915.59;4982710;28;20450;-67
2022/08/14 04:36:30;;;;;;;5.43;4.13;;;;;;;24.94;40.93;100913.09;4965061;28;20483;-64
2022/08/14 04:44:23;;;;;;;6.03;4.05;;;;;;;24.94;40.84;100901.56;4977566;28;20045;-64
2022/08/14 04:49:32;;;;;;;5.70;4.45;;;;;;;24.90;40.67;100886.94;4965336;28;20045;-66
2022/08/14 04:51:59;;;;;;;5.95;3.97;;;;;;;24.92;41.13;100888.41;4967864;28;20030;-63
2022/08/14 04:54:25;;;;;;;7.28;4.43;;;;;;;24.95;40.80;100893.41;4984165;28;20500;-66
2022/08/14 04:56:51;;;;;;;5.18;4.03;;;;;;;24.93;40.79;100884.75;4974495;28;20042;-64
2022/08/14 04:59:17;;;;;;;6.10;4.45;;;;;;;24.96;41.21;100895.06;4981579;28;20777;-66
2022/08/14 05:01:43;;;;;;;6.47;4.10;;;;;;;24.96;40.69;100887.06;4983059;28;20513;-66
2022/08/14 05:04:11;;;;;;;5.00;3.75;;;;;;;24.97;40.69;100882.56;4969051;28;20280;-65
2022/08/14 05:06:37;;;;;;;6.20;4.28;;;;;;;24.92;40.83;100872.41;4967344;28;20361;-64
2022/08/14 05:09:03;;;;;;;5.40;4.22;;;;;;;24.93;41.01;100874.09;4968007;28;20030;-64
2022/08/14 05:11:32;;;;;;;6.25;4.35;;;;;;;24.94;40.84;100875.75;4982077;28;20390;-67
2022/08/14 05:14:00;;;;;;;6.82;4.40;;;;;;;24.97;40.82;100886.06;4964348;28;20050;-67
2022/08/14 05:16:29;;;;;;;5.03;4.03;;;;;;;25.02;40.77;100882.88;4976396;28;20072;-65
2022/08/14 05:18:55;;;;;;;6.55;4.30;;;;;;;25.04;40.70;100882.72;4969237;28;20034;-67
2022/08/14 05:21:20;;;;;;;5.60;4.28;;;;;;;25.00;41.10;100874.22;4967687;28;20053;-65
2022/08/14 05:23:45;;;;;;;6.57;4.57;;;;;;;25.02;40.56;100874.88;4964788;28;20049;-67
2022/08/14 05:26:16;;;;;;;5.38;4.15;;;;;;;25.05;40.64;100882.56;4970072;28;20320;-65
2022/08/14 05:28:44;;;;;;;4.90;3.88;;;;;;;25.07;40.71;100883.25;4982274;28;20030;-65
2022/08/14 05:31:16;;;;;;;4.80;4.20;;;;;;;25.06;41.00;100884.22;4983496;28;20085;-62
2022/08/14 05:33:41;;;;;;;5.43;4.32;;;;;;;25.05;40.77;100874.56;4983771;28;21345;-63
2022/08/14 05:36:10;;;;;;;6.45;4.57;;;;;;;25.11;40.66;100889.88;4983560;28;20041;-65
2022/08/14 05:38:43;;;;;;;5.22;4.00;;;;;;;25.13;41.23;100882.56;4983685;28;20042;-64
2022/08/14 05:41:19;;;;;;;6.65;4.45;;;;;;;25.12;40.74;100883.56;4977087;28;20038;-66
2022/08/14 05:43:46;;;;;;;5.75;4.10;;;;;;;25.11;40.94;100878.38;4971743;28;20031;-66
2022/08/14 05:46:14;;;;;;;5.80;4.13;;;;;;;25.16;40.85;100879.53;4979133;28;20439;-65
2022/08/14 05:48:39;;;;;;;6.38;4.30;;;;;;;25.12;41.19;100866.72;4975361;28;20062;-68
2022/08/14 05:51:05;;;;;;;6.28;4.30;;;;;;;25.16;41.13;100865.38;4972862;28;20030;-66
2022/08/14 05:53:30;;;;;;;16.90;4.88;;;;;;;25.16;40.72;100865.38;4978177;28;20125;-75
2022/08/14 05:55:57;;;;;;;9.25;5.63;;;;;;;25.08;40.97;100868.06;4977785;28;20041;-73
2022/08/14 05:58:23;;;;;;;8.45;5.50;;;;;;;24.81;41.97;100876.25;4973694;28;20069;-73
2022/08/14 06:00:48;;;;;;;9.60;6.03;;;;;;;24.50;42.70;100876.09;4976227;28;20049;-74
2022/08/14 06:03:19;;;;;;;8.77;6.15;;;;;;;24.28;42.91;100882.88;4978300;28;20030;-72
2022/08/14 06:05:50;;;;;;;8.18;5.55;;;;;;;24.03;44.04;100874.03;4973590;28;20038;-74
2022/08/14 06:08:27;;;;;;;9.20;6.35;;;;;;;23.78;44.32;100860.59;4972589;28;20031;-74
2022/08/14 06:10:54;;;;;;;7.38;5.88;;;;;;;23.72;44.03;100871.91;4976460;28;20077;-72
2022/08/14 06:13:21;;;;;;;6.80;5.57;;;;;;;23.54;44.57;100861.34;4970954;28;20328;-73
2022/08/14 06:15:47;;;;;;;7.03;5.90;;;;;;;23.61;45.18;100882.84;4974426;28;20045;-75
2022/08/14 06:18:14;;;;;;;8.65;6.05;;;;;;;23.51;44.89;100867.84;4971450;28;20093;-76
2022/08/14 06:20:39;;;;;;;9.73;6.25;;;;;;;23.49;45.76;100874.31;4975581;28;20033;-75
2022/08/14 06:23:05;;;;;;;8.27;6.78;;;;;;;23.45;45.75;100865.81;4976067;28;20113;-69
2022/08/14 06:25:30;;;;;;;7.78;5.57;;;;;;;23.43;45.29;100864.31;4978395;28;20026;-76
2022/08/14 06:27:56;;;;;;;8.00;5.68;;;;;;;23.44;45.32;100861.50;4974213;28;20109;-69
2022/08/14 06:30:25;;;;;;;9.20;6.10;;;;;;;23.48;45.10;100867.31;4967992;28;20031;-71
2022/08/14 06:32:50;;;;;;;7.60;6.07;;;;;;;23.52;44.85;100864.19;4969640;28;20564;-70
2022/08/14 06:35:22;;;;;;;6.53;5.70;;;;;;;23.57;45.26;100861.03;4968520;28;20042;-70
2022/08/14 06:37:52;;;;;;;10.35;5.90;;;;;;;23.58;45.24;100864.56;4974734;28;20038;-76
2022/08/14 06:40:18;;;;;;;6.63;5.93;;;;;;;23.53;45.12;100865.84;4976796;28;20606;-76
2022/08/14 06:42:43;;;;;;;7.47;5.83;;;;;;;23.50;45.33;100868.84;4974365;28;20048;-73
2022/08/14 06:45:09;;;;;;;6.28;5.68;;;;;;;23.49;45.45;100859.16;4969237;28;29322;-77
2022/08/14 06:47:36;;;;;;;7.95;6.15;;;;;;;23.52;45.13;100856.19;4990976;28;20030;-77
2022/08/14 06:50:07;;;;;;;6.30;5.63;;;;;;;23.55;45.26;100853.22;4985920;28;20422;-78
2022/08/14 06:52:32;;;;;;;10.80;5.40;;;;;;;23.59;45.11;100853.75;4972465;28;87297;-73
2022/08/14 06:54:58;;;;;;;6.68;5.68;;;;;;;23.71;44.86;100859.59;4994496;28;20941;-74
2022/08/14 06:57:23;;;;;;;6.57;5.07;;;;;;;23.75;45.15;100852.13;4987911;28;20042;-75
2022/08/14 06:59:49;;;;;;;7.07;5.63;;;;;;;23.87;44.36;100856.19;4992686;28;20123;-74
2022/08/14 07:07:43;;;;;;;6.88;5.38;;;;;;;24.23;43.52;100848.75;5001083;28;20392;-74
2022/08/14 07:10:09;;;;;;;6.05;5.15;;;;;;;24.35;43.62;100851.94;5001053;28;20033;-74
2022/08/14 07:12:34;;;;;;;6.90;5.45;;;;;;;24.41;43.19;100845.13;4994862;28;20034;-73
2022/08/14 07:15:00;;;;;;;6.03;5.38;;;;;;;24.42;43.12;100841.47;4988120;28;20057;-74
2022/08/14 07:17:26;;;;;;;6.97;5.50;;;;;;;24.50;42.81;100843.28;4987207;28;20030;-75
2022/08/14 07:19:51;;;;;;;8.57;5.10;;;;;;;24.54;43.10;100837.44;4991076;28;20454;-67
2022/08/14 07:22:17;;;;;;;6.32;5.55;;;;;;;24.58;43.17;100838.81;4987376;28;20029;-67
2022/08/14 07:24:42;;;;;;;8.45;5.10;;;;;;;24.59;43.29;100826.31;4994654;28;20052;-69
2022/08/14 07:27:08;;;;;;;5.90;4.80;;;;;;;24.77;43.06;100842.97;4995460;28;20035;-68
2022/08/14 07:29:33;;;;;;;5.93;4.67;;;;;;;24.86;43.09;100846.44;4984758;28;20037;-68
2022/08/14 07:31:58;;;;;;;5.78;4.47;;;;;;;24.98;42.76;100850.41;4983897;28;20945;-69
2022/08/14 07:34:23;;;;;;;6.00;4.87;;;;;;;25.04;42.78;100837.41;5001071;28;20041;-69
2022/08/14 07:36:49;;;;;;;6.68;4.80;;;;;;;25.12;42.47;100840.88;5001335;28;20264;-70
2022/08/14 07:39:14;;;;;;;6.80;4.50;;;;;;;25.15;42.00;100829.03;4988420;28;20048;-69
2022/08/14 07:41:40;;;;;;;6.03;4.63;;;;;;;25.20;41.91;100837.38;5000993;28;20029;-69
2022/08/14 07:44:05;;;;;;;5.60;4.60;;;;;;;25.27;42.18;100838.31;4994146;28;20108;-70
2022/08/14 07:46:30;;;;;;;6.13;4.73;;;;;;;25.34;42.25;100833.16;4991835;28;20042;-68
2022/08/14 07:48:57;;;;;;;6.15;4.78;;;;;;;25.33;42.16;100828.84;4989921;28;20255;-68
2022/08/14 07:51:22;;;;;;;6.65;5.00;;;;;;;25.39;42.21;100837.97;5001454;28;20117;-68
2022/08/14 07:53:48;;;;;;;6.03;4.70;;;;;;;25.39;42.04;100838.84;4988575;28;20129;-67
2022/08/14 07:56:13;;;;;;;5.82;4.88;;;;;;;25.41;42.30;100831.47;4988232;28;20116;-69
2022/08/14 07:58:39;;;;;;;7.30;4.70;;;;;;;25.40;42.10;100829.81;5000968;28;20033;-67
2022/08/14 08:01:05;;;;;;;5.47;4.80;;;;;;;25.39;41.92;100829.97;4997483;28;20287;-67
2022/08/14 08:03:34;;;;;;;5.85;4.60;;;;;;;25.47;42.01;100837.97;4981746;28;20042;-71
2022/08/14 08:06:00;;;;;;;6.10;4.70;;;;;;;25.48;41.68;100840.44;4987784;28;20492;-68
2022/08/14 08:08:28;;;;;;;6.03;4.80;;;;;;;25.51;41.60;100844.59;4988821;28;20108;-68
2022/08/14 08:10:56;;;;;;;7.03;4.63;;;;;;;25.52;41.48;100838.28;4998618;28;20033;-68
2022/08/14 08:13:21;;;;;;;5.93;4.60;;;;;;;25.52;41.57;100835.59;5000849;28;20034;-67
2022/08/14 08:15:53;;;;;;;5.30;4.38;;;;;;;25.57;41.49;100840.41;4999298;28;20026;-68
2022/08/14 08:18:19;;;;;;;5.95;4.85;;;;;;;25.56;41.36;100826.22;4982297;28;20045;-66
2022/08/14 08:20:51;;;;;;;6.07;4.13;;;;;;;25.56;41.30;100822.75;5000550;28;20127;-67
2022/08/14 08:23:18;;;;;;;5.50;4.00;;;;;;;25.59;41.78;100815.22;4998103;28;20470;-69
2022/08/14 08:25:46;;;;;;;5.78;4.45;;;;;;;25.62;41.61;100816.72;4992800;28;20504;-68
2022/08/14 08:28:26;;;;;;;6.50;4.40;;;;;;;25.58;41.60;100810.91;4982909;28;20034;-69
2022/08/14 08:30:55;;;;;;;5.53;4.20;;;;;;;25.53;42.05;100814.09;4991397;28;20045;-70
2022/08/14 08:33:23;;;;;;;5.30;4.22;;;;;;;25.49;41.92;100807.44;4985238;28;20034;-69
2022/08/14 08:35:49;;;;;;;6.00;4.32;;;;;;;25.47;41.98;100812.13;4997256;28;20029;-67
2022/08/14 08:38:21;;;;;;;4.93;3.92;;;;;;;25.50;41.90;100817.09;5003789;28;20080;-68
2022/08/14 08:40:48;;;;;;;5.57;4.13;;;;;;;25.42;41.56;100809.16;5002838;28;20029;-67
2022/08/14 08:43:25;;;;;;;5.28;4.50;;;;;;;25.47;42.09;100819.28;5001544;28;20038;-69
2022/08/14 08:45:55;;;;;;;6.22;4.53;;;;;;;25.51;41.83;100824.09;5004057;28;20030;-69
2022/08/14 08:48:30;;;;;;;6.47;4.55;;;;;;;25.49;41.93;100809.28;5004360;28;20033;-69
2022/08/14 08:51:00;;;;;;;5.10;4.32;;;;;;;25.49;42.11;100817.28;4988094;28;20467;-67
2022/08/14 08:53:31;;;;;;;4.93;4.10;;;;;;;25.51;42.09;100815.25;4996744;28;20394;-68
2022/08/14 08:55:57;;;;;;;5.30;4.25;;;;;;;25.50;41.68;100817.09;4996729;28;20466;-69
2022/08/14 08:58:22;;;;;;;5.45;4.10;;;;;;;25.53;41.66;100816.75;5002163;28;20046;-68
2022/08/14 09:00:50;;;;;;;5.90;4.10;;;;;;;25.55;41.72;100816.59;4989536;28;20034;-70
2022/08/14 09:03:20;;;;;;;4.60;3.80;;;;;;;25.54;41.91;100817.56;5000547;28;20034;-68
2022/08/14 09:05:50;;;;;;;5.75;4.10;;;;;;;25.55;41.78;100808.56;4987562;28;20068;-70
2022/08/14 09:08:27;;;;;;;4.95;4.07;;;;;;;25.53;41.98;100806.09;4990418;28;20027;-67
2022/08/14 09:10:55;;;;;;;5.70;4.35;;;;;;;25.48;41.62;100794.25;4999258;28;20366;-68
2022/08/14 09:13:24;;;;;;;5.43;4.03;;;;;;;25.54;41.86;100798.91;4996708;28;20159;-69
2022/08/14 09:15:52;;;;;;;5.45;4.10;;;;;;;25.56;41.98;100799.53;4996647;28;20422;-66
2022/08/14 09:18:18;;;;;;;5.15;3.95;;;;;;;25.53;41.69;100795.41;4988592;28;20045;-69
2022/08/14 09:20:46;;;;;;;5.22;4.03;;;;;;;25.54;41.46;100790.91;4994027;28;20034;-68
2022/08/14 09:23:12;;;;;;;5.72;4.05;;;;;;;25.57;41.91;100789.72;4984424;28;20133;-70
2022/08/14 09:25:40;;;;;;;4.95;4.30;;;;;;;25.54;41.37;100785.56;4989259;28;20490;-68
2022/08/14 09:28:06;;;;;;;5.05;4.07;;;;;;;25.58;41.94;100786.03;4991745;28;20025;-68
2022/08/14 09:30:35;;;;;;;5.35;4.22;;;;;;;25.58;41.91;100794.03;4995641;28;20044;-67
2022/08/14 09:33:00;;;;;;;6.15;4.60;;;;;;;25.58;41.51;100794.88;4984860;28;20137;-70
2022/08/14 09:35:52;;;;;;;5.33;4.23;;;;;;;25.51;41.72;100778.72;4995904;28;20125;-69
2022/08/14 09:38:37;;;;;;;4.97;3.88;;;;;;;25.55;41.53;100781.03;4991864;28;20031;-69
2022/08/14 09:41:41;;;;;;;6.15;4.65;;;;;;;25.60;41.93;100784.88;4993766;28;20058;-70
2022/08/14 09:44:38;;;;;;;5.57;4.10;;;;;;;25.52;41.81;100764.38;4993189;28;20502;-68
2022/08/14 09:47:04;;;;;;;5.85;4.22;;;;;;;25.58;41.79;100767.34;4983638;28;20034;-69
2022/08/14 09:49:34;;;;;;;5.07;3.83;;;;;;;25.55;41.42;100760.56;4988114;28;20608;-69
2022/08/14 09:52:10;;;;;;;4.93;3.92;;;;;;;25.62;41.62;100771.34;4989265;28;20030;-68
2022/08/14 09:54:37;;;;;;;4.65;4.03;;;;;;;25.62;41.71;100764.16;4991742;28;20116;-68
2022/08/14 09:57:05;;;;;;;5.00;4.00;;;;;;;25.60;41.44;100758.19;4998311;28;20033;-70
2022/08/14 09:59:40;;;;;;;4.80;3.50;;;;;;;25.62;41.44;100750.00;4991474;28;20030;-68
2022/08/14 10:02:23;;;;;;;5.53;4.18;;;;;;;25.62;41.38;100756.16;4994021;28;20038;-69
2022/08/14 10:05:01;;;;;;;5.40;4.07;;;;;;;25.58;41.61;100749.53;4987114;28;20030;-69
2022/08/14 10:07:49;;;;;;;5.05;3.60;;;;;;;25.64;41.48;100754.16;4997901;28;20092;-70
2022/08/14 10:10:38;;;;;;;4.93;3.70;;;;;;;25.60;41.70;100736.00;4987367;28;20463;-70
2022/08/14 10:13:06;;;;;;;4.60;3.58;;;;;;;25.64;41.33;100743.50;4988771;28;20103;-70
2022/08/14 10:15:37;;;;;;;4.82;3.83;;;;;;;25.62;41.77;100734.81;4994479;28;20243;-69
2022/08/14 10:18:15;;;;;;;4.95;3.50;;;;;;;25.65;41.36;100733.63;4993669;28;20740;-69
2022/08/14 10:20:44;;;;;;;5.38;3.90;;;;;;;25.62;41.40;100724.13;4996505;28;20053;-70
2022/08/14 10:23:21;;;;;;;5.10;3.70;;;;;;;25.63;41.88;100725.81;4985442;28;20086;-69
2022/08/14 10:25:49;;;;;;;4.85;3.60;;;;;;;25.67;41.88;100735.09;4991327;28;20117;-69
2022/08/14 10:28:17;;;;;;;5.18;3.50;;;;;;;25.63;41.65;100728.47;4991740;28;20543;-70
2022/08/14 10:30:47;;;;;;;5.45;3.90;;;;;;;25.69;41.66;100726.91;4990532;28;20048;-68
2022/08/14 10:33:32;;;;;;;4.85;3.70;;;;;;;25.68;41.43;100719.94;4993053;28;20030;-69
2022/08/14 10:36:02;;;;;;;4.55;3.45;;;;;;;25.66;41.38;100712.09;4993111;28;20517;-69
2022/08/14 10:38:32;;;;;;;5.18;3.60;;;;;;;25.64;41.41;100706.13;4995969;28;20030;-69
2022/08/14 10:41:16;;;;;;;5.00;3.95;;;;;;;25.70;41.86;100718.72;4989144;28;20038;-69
2022/08/14 10:43:44;;;;;;;5.13;4.10;;;;;;;25.66;41.57;100704.09;4988314;28;20023;-68
2022/08/14 10:46:15;;;;;;;5.20;3.85;;;;;;;25.70;41.55;100702.72;4992375;28;20022;-69
2022/08/14 10:48:53;;;;;;;4.93;3.80;;;;;;;25.66;41.25;100693.44;4995804;28;20470;-69
2022/08/14 10:51:24;;;;;;;4.50;3.63;;;;;;;25.71;41.59;100706.25;4987398;28;20035;-69
2022/08/14 10:53:53;;;;;;;5.20;3.90;;;;;;;25.70;41.30;100692.03;4993923;28;20042;-67
2022/08/14 10:56:31;;;;;;;5.05;3.50;;;;;;;25.70;41.55;100699.22;4987290;28;20038;-70
2022/08/14 10:59:07;;;;;;;4.68;3.55;;;;;;;25.71;41.84;100692.91;4999581;28;20037;-68
2022/08/14 11:01:34;;;;;;;6.03;3.80;;;;;;;25.70;41.36;100683.22;4987983;28;20544;-69
2022/08/14 11:04:00;;;;;;;4.88;3.80;;;;;;;25.71;41.52;100688.38;4986732;28;20029;-69
2022/08/14 11:06:27;;;;;;;5.07;3.90;;;;;;;25.70;41.84;100693.91;4985232;28;20450;-69
2022/08/14 11:08:53;;;;;;;5.38;3.40;;;;;;;25.71;41.31;100698.25;4990508;28;20053;-67
2022/08/14 11:11:21;;;;;;;5.10;3.83;;;;;;;25.71;41.29;100692.91;4994016;28;20033;-70
2022/08/14 11:13:49;;;;;;;4.95;3.60;;;;;;;25.72;41.71;100694.53;4982969;28;20076;-69
2022/08/14 11:16:14;;;;;;;6.78;4.00;;;;;;;25.70;41.66;100691.22;4982821;28;20407;-71
2022/08/14 11:18:44;;;;;;;4.95;3.80;;;;;;;25.67;41.33;100688.91;4989525;28;20114;-68
2022/08/14 11:21:13;;;;;;;4.90;3.60;;;;;;;25.62;41.31;100681.44;4994527;28;20108;-71
2022/08/14 11:23:39;;;;;;;5.18;4.00;;;;;;;25.67;41.53;100681.72;4981617;28;20049;-70
2022/08/14 11:26:07;;;;;;;6.37;4.20;;;;;;;25.67;41.42;100678.25;4989133;28;20026;-69
2022/08/14 11:28:37;;;;;;;5.70;4.00;;;;;;;25.68;41.43;100680.72;4991302;28;20279;-69
2022/08/14 11:31:05;;;;;;;5.32;3.90;;;;;;;25.61;41.35;100669.13;4985435;28;20423;-72
2022/08/14 11:33:33;;;;;;;4.85;3.75;;;;;;;25.73;41.53;100692.72;4990759;28;20083;-66
2022/08/14 11:36:00;;;;;;;6.00;3.75;;;;;;;25.69;41.87;100685.06;4986912;28;20153;-70
2022/08/14 11:38:27;;;;;;;4.97;3.63;;;;;;;25.66;41.71;100676.56;4988094;28;20022;-68
2022/08/14 11:40:55;;;;;;;5.50;3.80;;;;;;;25.73;41.58;100668.69;4984453;28;20045;-70
2022/08/14 11:43:21;;;;;;;6.43;4.00;;;;;;;25.66;41.76;100649.88;4995387;28;20159;-75
2022/08/14 11:45:48;;;;;;;5.78;4.13;;;;;;;25.69;41.97;100652.19;4987811;28;20137;-71